Time;durP1;ratioP1;P1;durP2;ratioP2;P2;SDS_P1;SDS_P2;PMS_P1;PMS_P2;Temp;Humidity;BMP_temperature;BMP_pressure;BME280_temperature;BME280_humidity;BME280_pressure;Samples;Min_cycle;Max_cycle;Signal;HPM_P1;HPM_P2
2022/12/15 00:39:18;;;;;;;20.70;9.98;;;;;;;-8.68;100.00;99514.66;6195015;28;20073;-90
2022/12/15 00:42:20;;;;;;;17.08;9.52;;;;;;;-8.68;100.00;99516.34;6199250;28;20038;-90
2022/12/15 00:46:53;;;;;;;19.77;10.10;;;;;;;-8.69;100.00;99514.72;6203365;28;20046;-90
2022/12/15 00:48:44;;;;;;;19.00;10.68;;;;;;;-8.69;100.00;99524.75;6205612;28;20042;-91
2022/12/15 01:21:54;;;;;;;18.38;9.02;;;;;;;-8.59;100.00;99540.47;6198529;28;20042;-90
2022/12/15 01:24:55;;;;;;;20.02;10.27;;;;;;;-8.60;100.00;99542.13;6198352;28;20204;-91
2022/12/15 01:27:58;;;;;;;12.38;8.05;;;;;;;-8.61;100.00;99537.97;6200261;28;20042;-90
2022/12/15 01:31:00;;;;;;;15.80;8.38;;;;;;;-8.58;100.00;99542.09;6210580;28;20528;-90
2022/12/15 01:34:01;;;;;;;14.93;8.27;;;;;;;-8.61;100.00;99542.97;6203000;28;20080;-90
2022/12/15 01:37:03;;;;;;;14.93;8.20;;;;;;;-8.61;100.00;99537.97;6200129;28;20830;-91
2022/12/15 01:43:31;;;;;;;14.25;8.77;;;;;;;-8.61;100.00;99537.97;6210913;28;20046;-90
2022/12/15 01:46:33;;;;;;;19.38;9.43;;;;;;;-8.55;100.00;99534.53;6203533;28;20034;-90
2022/12/15 01:49:35;;;;;;;14.13;7.80;;;;;;;-8.53;100.00;99545.34;6220799;28;20492;-90
2022/12/15 01:52:37;;;;;;;14.57;8.05;;;;;;;-8.56;100.00;99536.22;6204308;28;20042;-91
2022/12/15 01:55:43;;;;;;;18.23;8.48;;;;;;;-8.58;100.00;99542.09;6201557;28;20188;-91
2022/12/15 01:58:52;;;;;;;17.98;8.45;;;;;;;-8.55;100.00;99549.56;6220274;28;20508;-91
2022/12/15 02:01:54;;;;;;;16.90;9.00;;;;;;;-8.55;100.00;99542.88;6205822;28;20046;-91
2022/12/15 02:04:58;;;;;;;16.80;9.07;;;;;;;-8.46;100.00;99545.22;6205957;28;20240;-90
2022/12/15 02:08:02;;;;;;;18.50;8.93;;;;;;;-8.44;100.00;99549.41;6190258;28;20085;-90
2022/12/15 02:11:35;;;;;;;14.35;8.77;;;;;;;-8.43;100.00;99549.38;6211180;28;20042;-90
2022/12/15 02:15:08;;;;;;;14.70;8.57;;;;;;;-8.46;100.00;99547.72;6217617;28;20069;-91
2022/12/15 02:18:09;;;;;;;15.50;8.30;;;;;;;-8.44;100.00;99550.22;6202223;28;20034;-90
2022/12/15 02:21:29;;;;;;;16.67;9.18;;;;;;;-8.41;100.00;99554.38;6208801;28;20046;-91
2022/12/15 02:24:49;;;;;;;18.35;8.63;;;;;;;-8.40;100.00;99556.84;6209079;28;20046;-90
2022/12/15 02:28:07;;;;;;;14.65;8.10;;;;;;;-8.40;100.00;99563.53;6209546;28;20078;-90
2022/12/15 02:34:49;;;;;;;13.88;8.05;;;;;;;-8.30;100.00;99572.53;6199812;28;20452;-90
2022/12/15 02:37:51;;;;;;;14.90;7.45;;;;;;;-8.28;100.00;99588.38;6196018;28;20484;-91
2022/12/15 02:41:00;;;;;;;15.63;8.35;;;;;;;-8.25;100.00;99585.81;6190775;28;20046;-90
2022/12/15 02:44:12;;;;;;;15.82;8.60;;;;;;;-8.21;100.00;99591.63;6201068;28;20045;-90
2022/12/15 02:47:19;;;;;;;14.23;8.48;;;;;;;-8.18;100.00;99596.59;6201308;28;20500;-90
2022/12/15 02:50:51;;;;;;;16.50;7.80;;;;;;;-8.16;100.00;99587.34;6211038;28;20512;-91
2022/12/15 02:54:25;;;;;;;14.25;7.70;;;;;;;-8.18;100.00;99599.09;6206242;28;20480;-90
2022/12/15 02:57:41;;;;;;;18.05;9.18;;;;;;;-8.14;100.00;99595.69;6089452;29;20396;-90
2022/12/15 03:00:49;;;;;;;14.65;7.75;;;;;;;-8.17;100.00;99581.50;6087599;29;20060;-90
2022/12/15 03:03:52;;;;;;;16.13;9.45;;;;;;;-8.14;100.00;99585.66;6091424;29;20574;-91
2022/12/15 03:07:02;;;;;;;15.60;8.45;;;;;;;-8.17;100.00;99589.03;6088582;29;20067;-90
2022/12/15 03:10:06;;;;;;;17.90;8.30;;;;;;;-8.20;100.00;99581.53;6095766;29;20055;-90
2022/12/15 03:13:07;;;;;;;18.48;7.78;;;;;;;-8.25;100.00;99585.81;6089621;29;20087;-90
2022/12/15 03:16:09;;;;;;;13.43;7.70;;;;;;;-8.18;100.00;99601.59;6089316;29;20059;-90
2022/12/15 03:19:11;;;;;;;12.85;6.63;;;;;;;-8.21;100.00;99602.50;6091337;29;20763;-90
2022/12/15 03:22:12;;;;;;;12.48;7.13;;;;;;;-8.23;100.00;99612.53;6082190;29;20119;-90
2022/12/15 03:25:14;;;;;;;15.55;6.85;;;;;;;-8.19;100.00;99615.03;6068692;29;20225;-90
2022/12/15 03:28:16;;;;;;;13.60;7.00;;;;;;;-8.17;100.00;99610.78;6085058;29;20044;-90
2022/12/15 03:31:18;;;;;;;13.55;6.70;;;;;;;-8.21;100.00;99612.53;6090431;29;20044;-90
2022/12/15 03:34:20;;;;;;;12.13;7.20;;;;;;;-8.18;100.00;99614.97;6202274;28;20046;-91
2022/12/15 03:37:21;;;;;;;14.00;7.00;;;;;;;-8.10;100.00;99624.88;6212281;28;20043;-90
2022/12/15 03:40:23;;;;;;;12.05;7.05;;;;;;;-8.04;100.00;99633.16;6201182;28;20133;-90
2022/12/15 03:43:25;;;;;;;17.90;7.80;;;;;;;-8.03;100.00;99628.94;6216393;28;20803;-90
2022/12/15 03:46:27;;;;;;;12.13;7.20;;;;;;;-8.07;100.00;99637.41;6195834;28;20492;-90
2022/12/15 03:49:29;;;;;;;12.88;6.80;;;;;;;-8.06;100.00;99639.88;6205704;28;20050;-90
2022/12/15 03:52:30;;;;;;;13.48;7.30;;;;;;;-8.03;100.00;99639.81;6201540;28;20042;-90
2022/12/15 03:55:34;;;;;;;14.43;7.03;;;;;;;-7.99;100.00;99652.34;6204921;28;20678;-90
2022/12/15 03:58:35;;;;;;;14.38;7.22;;;;;;;-7.97;100.00;99658.13;6199054;28;20035;-90
2022/12/15 04:01:37;;;;;;;10.98;7.05;;;;;;;-7.98;100.00;99654.81;6209645;28;20045;-90
2022/12/15 04:04:38;;;;;;;12.77;7.10;;;;;;;-7.97;100.00;99658.13;6208954;28;20041;-90
2022/12/15 04:07:40;;;;;;;14.68;7.53;;;;;;;-7.97;100.00;99663.16;6203078;28;20038;-90
2022/12/15 04:10:42;;;;;;;12.32;6.80;;;;;;;-7.96;100.00;99663.16;6203827;28;20507;-90
2022/12/15 04:13:44;;;;;;;15.15;7.88;;;;;;;-7.98;100.00;99651.47;6204673;28;20038;-90
2022/12/15 04:16:46;;;;;;;14.07;6.72;;;;;;;-7.97;100.00;99646.44;6200073;28;20524;-90
2022/12/15 04:23:07;;;;;;;14.87;6.77;;;;;;;-7.98;100.00;99659.00;6189983;28;20046;-90
2022/12/15 05:33:18;;;;;;;16.05;8.02;;;;;;;-7.94;100.00;99686.56;6202007;28;20394;-90
2022/12/15 05:36:20;;;;;;;16.05;8.23;;;;;;;-7.94;100.00;99685.72;6200967;28;20054;-90
2022/12/15 05:39:22;;;;;;;16.92;8.30;;;;;;;-7.90;100.00;99682.28;6190524;28;20125;-90
2022/12/15 05:42:24;;;;;;;15.40;8.27;;;;;;;-7.89;100.00;99696.53;6204026;28;20070;-90
2022/12/15 05:45:27;;;;;;;16.50;8.45;;;;;;;-7.92;100.00;99702.44;6203327;28;20049;-90
2022/12/15 05:48:29;;;;;;;16.65;7.50;;;;;;;-7.89;100.00;99707.38;6199120;28;20050;-90
2022/12/15 05:51:31;;;;;;;15.60;8.45;;;;;;;-7.89;100.00;99704.88;6201999;28;20499;-90
2022/12/15 05:54:32;;;;;;;12.80;7.82;;;;;;;-7.85;100.00;99710.66;6192627;28;20049;-90
2022/12/15 05:57:34;;;;;;;17.02;8.63;;;;;;;-7.82;100.00;99713.97;6207251;28;20038;-90
2022/12/15 06:00:36;;;;;;;16.77;8.68;;;;;;;-7.74;100.00;99723.06;6199038;28;20054;-90
2022/12/15 06:03:39;;;;;;;14.32;8.00;;;;;;;-7.75;100.00;99729.78;6218190;28;20435;-90
2022/12/15 06:06:41;;;;;;;12.02;7.35;;;;;;;-7.75;100.00;99727.25;6210137;28;20046;-90
2022/12/15 06:09:43;;;;;;;14.18;7.45;;;;;;;-7.73;100.00;99732.25;6208552;28;20041;-90
2022/12/15 06:12:44;;;;;;;16.55;8.32;;;;;;;-7.74;100.00;99743.97;6203287;28;20533;-90
2022/12/15 06:16:06;;;;;;;15.77;8.02;;;;;;;-7.71;100.00;99748.13;6195401;28;20132;-90
2022/12/15 06:19:08;;;;;;;17.27;8.60;;;;;;;-7.69;100.00;99754.78;6206010;28;20040;-90
2022/12/15 06:22:10;;;;;;;17.42;8.40;;;;;;;-7.67;100.00;99753.06;6205976;28;20408;-90
2022/12/15 06:25:11;;;;;;;23.27;8.23;;;;;;;-7.67;100.00;99745.53;6207503;28;20050;-90
2022/12/15 06:28:13;;;;;;;15.93;8.38;;;;;;;-7.64;100.00;99755.53;6205985;28;20045;-90
2022/12/15 06:31:17;;;;;;;16.52;8.02;;;;;;;-7.59;100.00;99755.44;6220990;28;20072;-90
2022/12/15 06:34:19;;;;;;;14.95;8.40;;;;;;;-7.57;100.00;99766.31;6211512;28;20041;-90
2022/12/15 06:37:20;;;;;;;13.15;8.23;;;;;;;-7.54;100.00;99778.81;6203894;28;20556;-90
2022/12/15 06:40:22;;;;;;;15.10;7.90;;;;;;;-7.50;100.00;99777.06;6208433;28;20045;-91
2022/12/15 06:43:25;;;;;;;17.10;7.85;;;;;;;-7.49;100.00;99771.19;6212288;28;20136;-90
2022/12/15 06:46:28;;;;;;;18.40;9.13;;;;;;;-7.50;100.00;99777.06;6211147;28;20120;-90
2022/12/15 06:49:30;;;;;;;18.20;9.32;;;;;;;-7.53;100.00;99769.59;6211100;28;20042;-90
2022/12/15 06:52:32;;;;;;;14.60;8.30;;;;;;;-7.55;100.00;99774.66;6201554;28;20042;-90
2022/12/15 06:55:34;;;;;;;19.92;9.93;;;;;;;-7.56;100.00;99769.66;6198454;28;20131;-90
2022/12/15 06:58:35;;;;;;;18.67;9.70;;;;;;;-7.57;100.00;99781.38;6203901;28;20041;-91
2022/12/15 07:01:37;;;;;;;17.10;8.40;;;;;;;-7.59;100.00;99783.91;6192615;28;20043;-90
2022/12/15 07:04:39;;;;;;;14.80;9.23;;;;;;;-7.61;100.00;99787.31;6224902;28;20045;-90
2022/12/15 07:07:41;;;;;;;14.65;8.77;;;;;;;-7.61;100.00;99783.09;6193660;28;20042;-90
2022/12/15 07:10:43;;;;;;;16.95;9.10;;;;;;;-7.58;100.00;99782.22;6193821;28;20049;-90
2022/12/15 07:13:48;;;;;;;16.52;9.25;;;;;;;-7.62;100.00;99783.16;6210654;28;20518;-90
2022/12/15 07:16:50;;;;;;;20.55;8.57;;;;;;;-7.59;100.00;99785.59;6208684;28;20050;-90
2022/12/15 07:19:51;;;;;;;17.75;8.77;;;;;;;-7.61;100.00;99790.63;6207558;28;20042;-90
2022/12/15 07:22:54;;;;;;;19.70;10.18;;;;;;;-7.56;100.00;99800.63;6203217;28;20413;-90
2022/12/15 07:25:55;;;;;;;17.92;9.27;;;;;;;-7.54;100.00;99803.13;6210377;28;20041;-90
2022/12/15 07:28:57;;;;;;;17.83;8.63;;;;;;;-7.54;100.00;99813.16;6205539;28;20038;-90
2022/12/15 07:32:00;;;;;;;17.30;9.02;;;;;;;-7.51;100.00;99823.16;6201548;28;20037;-90
2022/12/15 07:35:04;;;;;;;15.50;8.73;;;;;;;-7.49;100.00;99832.34;6202859;28;20053;-90
2022/12/15 07:38:06;;;;;;;17.35;9.13;;;;;;;-7.50;100.00;99835.72;6201914;28;20445;-90
2022/12/15 07:41:09;;;;;;;17.80;8.63;;;;;;;-7.49;100.00;99844.06;6201151;28;20156;-90
2022/12/15 07:44:11;;;;;;;16.52;8.85;;;;;;;-7.47;100.00;99852.44;6212396;28;20038;-90
2022/12/15 07:47:12;;;;;;;17.73;8.70;;;;;;;-7.43;100.00;99859.03;6210019;28;20439;-90
2022/12/15 07:50:14;;;;;;;19.52;9.13;;;;;;;-7.36;100.00;99875.69;6208235;28;20034;-90
2022/12/15 07:53:16;;;;;;;17.40;9.73;;;;;;;-7.31;100.00;99873.94;6201190;28;20041;-90
2022/12/15 07:56:20;;;;;;;21.33;9.38;;;;;;;-7.26;100.00;99872.16;6205309;28;20046;-90
2022/12/15 07:59:22;;;;;;;16.13;9.52;;;;;;;-7.22;100.00;99883.00;6213850;28;20101;-90
2022/12/15 08:02:24;;;;;;;18.13;9.98;;;;;;;-7.24;100.00;99872.97;6209705;28;20049;-90
2022/12/15 08:05:26;;;;;;;20.65;9.90;;;;;;;-7.25;100.00;99868.81;6210547;28;20042;-90
2022/12/15 08:08:28;;;;;;;14.32;8.65;;;;;;;-7.23;100.00;99867.09;6225079;28;20046;-90
2022/12/15 08:11:34;;;;;;;16.52;9.48;;;;;;;-7.19;100.00;99872.91;6209358;28;20556;-90
2022/12/15 08:14:35;;;;;;;20.08;9.55;;;;;;;-7.17;100.00;99881.25;6217534;28;20046;-90
2022/12/15 08:17:37;;;;;;;17.25;9.23;;;;;;;-7.16;100.00;99886.25;6209638;28;20393;-90
2022/12/15 08:20:39;;;;;;;20.95;11.05;;;;;;;-7.11;100.00;99885.34;6204493;28;20046;-90
2022/12/15 08:23:41;;;;;;;15.55;9.23;;;;;;;-7.07;100.00;99887.78;6201582;28;20038;-90
2022/12/15 08:26:43;;;;;;;21.58;9.40;;;;;;;-7.04;100.00;99890.25;6204733;28;20096;-90
2022/12/15 08:29:51;;;;;;;20.48;10.30;;;;;;;-7.04;100.00;99896.97;6206482;28;20518;-89
2022/12/15 08:32:53;;;;;;;20.15;10.48;;;;;;;-6.99;100.00;99890.97;6191957;28;20050;-90
2022/12/15 08:36:07;;;;;;;21.27;12.05;;;;;;;-6.90;100.00;99894.22;6194681;28;20650;-89
2022/12/15 08:39:09;;;;;;;25.98;12.25;;;;;;;-6.83;100.00;99899.09;6209538;28;20174;-90
2022/12/15 08:42:11;;;;;;;19.40;9.57;;;;;;;-6.75;100.00;99901.47;6209815;28;20452;-90
2022/12/15 08:45:12;;;;;;;22.88;10.55;;;;;;;-6.67;100.00;99901.34;6209012;28;20042;-90
2022/12/15 08:48:14;;;;;;;27.25;11.93;;;;;;;-6.62;100.00;99899.56;6198275;28;20053;-90
2022/12/15 08:51:16;;;;;;;20.17;10.63;;;;;;;-6.58;100.00;99907.03;6208096;28;20057;-90
2022/12/15 08:54:19;;;;;;;21.75;10.30;;;;;;;-6.59;100.00;99904.53;6201881;28;20350;-90
2022/12/15 08:57:21;;;;;;;17.92;10.52;;;;;;;-6.54;100.00;99912.81;6211125;28;20069;-90
2022/12/15 09:00:22;;;;;;;18.60;10.38;;;;;;;-6.51;100.00;99917.78;6207682;28;20058;-90
2022/12/15 09:03:26;;;;;;;19.67;11.20;;;;;;;-6.48;100.00;99917.75;6222623;28;20045;-90
2022/12/15 09:06:30;;;;;;;23.55;11.45;;;;;;;-6.39;100.00;99917.56;6203781;28;20044;-90
2022/12/15 09:09:32;;;;;;;22.02;9.73;;;;;;;-6.22;100.00;99919.75;6205434;28;20041;-90
2022/12/15 09:12:34;;;;;;;23.10;9.63;;;;;;;-6.12;100.00;99930.47;6205149;28;20069;-90
2022/12/15 09:15:36;;;;;;;23.27;10.40;;;;;;;-6.02;100.00;99931.94;6219082;28;20053;-90
2022/12/15 09:18:59;;;;;;;21.25;10.45;;;;;;;-5.95;100.00;99935.16;6206038;28;20415;-90
2022/12/15 09:22:01;;;;;;;18.58;9.95;;;;;;;-5.89;100.00;99929.94;6203339;28;21211;-90
2022/12/15 09:25:03;;;;;;;17.50;10.45;;;;;;;-5.85;100.00;99934.06;6206852;28;20045;-90
2022/12/15 09:28:05;;;;;;;19.17;10.93;;;;;;;-5.80;100.00;99944.06;6205337;28;20033;-90
2022/12/15 09:31:22;;;;;;;26.08;11.77;;;;;;;-5.73;100.00;99940.56;6202400;28;20046;-90
2022/12/15 09:34:24;;;;;;;14.90;8.65;;;;;;;-5.68;100.00;99953.88;6205079;28;20061;-90
2022/12/15 09:37:26;;;;;;;20.70;9.52;;;;;;;-5.62;100.00;99952.03;6202663;28;20552;-90
2022/12/15 09:40:28;;;;;;;22.52;10.48;;;;;;;-5.62;100.00;99948.69;6216971;28;20555;-90
2022/12/15 09:43:29;;;;;;;18.33;10.98;;;;;;;-5.59;100.00;99960.41;6202971;28;20049;-90
2022/12/15 09:47:11;;;;;;;18.40;10.05;;;;;;;-5.53;100.00;99958.59;6198677;28;20128;-90
2022/12/15 09:50:15;;;;;;;21.33;10.70;;;;;;;-5.50;100.00;99961.03;6202861;28;20115;-90
2022/12/15 09:53:19;;;;;;;23.77;10.07;;;;;;;-5.46;100.00;99964.31;6202004;28;20515;-90
2022/12/15 09:56:55;;;;;;;19.23;9.95;;;;;;;-5.42;100.00;99963.38;6216876;28;20145;-90
2022/12/15 10:00:06;;;;;;;24.30;11.05;;;;;;;-5.41;100.00;99965.88;6210034;28;20100;-89
2022/12/15 10:03:39;;;;;;;21.85;11.15;;;;;;;-5.39;100.00;99967.53;6210027;28;20511;-90
2022/12/15 10:06:50;;;;;;;20.80;10.88;;;;;;;-5.33;100.00;99967.41;6207454;28;20041;-90
2022/12/15 10:09:52;;;;;;;19.97;10.40;;;;;;;-5.25;100.00;99973.09;6207842;28;20575;-90
2022/12/15 10:12:59;;;;;;;21.75;11.23;;;;;;;-5.14;100.00;99975.34;6213450;28;20088;-89
2022/12/15 10:16:15;;;;;;;20.25;10.85;;;;;;;-5.05;100.00;99975.13;6213477;28;20042;-89
2022/12/15 10:19:49;;;;;;;20.85;10.50;;;;;;;-5.00;100.00;99975.84;6206867;28;20397;-89
2022/12/15 10:23:00;;;;;;;19.33;10.40;;;;;;;-4.81;100.00;99986.34;6218258;28;20446;-89
2022/12/15 10:26:19;;;;;;;20.92;10.48;;;;;;;-4.66;100.00;99992.72;6210466;28;20135;-89
2022/12/15 10:29:34;;;;;;;20.75;10.48;;;;;;;-4.61;100.00;99989.19;6203652;28;20148;-89
2022/12/15 10:33:10;;;;;;;17.63;10.38;;;;;;;-4.58;100.00;99979.00;6207054;28;20045;-89
2022/12/15 10:36:14;;;;;;;17.48;11.05;;;;;;;-4.58;100.00;99988.28;6212765;28;20352;-88
2022/12/15 10:39:16;;;;;;;21.60;10.55;;;;;;;-4.54;100.00;99994.94;6213000;28;20088;-88
2022/12/15 10:42:26;;;;;;;21.25;10.70;;;;;;;-4.48;100.00;99998.97;6210123;28;20046;-86
2022/12/15 10:45:34;;;;;;;21.80;11.45;;;;;;;-4.44;100.00;100006.44;6212497;28;20065;-86
2022/12/15 10:48:36;;;;;;;15.80;9.95;;;;;;;-4.38;100.00;99998.69;6212965;28;20419;-86
2022/12/15 10:52:15;;;;;;;19.73;10.20;;;;;;;-4.26;100.00;100006.84;6208518;28;20309;-86
2022/12/15 10:55:37;;;;;;;18.13;9.55;;;;;;;-4.18;100.00;99994.81;6138171;28;20142;-86
2022/12/15 10:58:54;;;;;;;17.92;9.13;;;;;;;-4.09;100.00;99992.06;6138029;28;20047;-86
2022/12/15 11:02:32;;;;;;;17.90;10.02;;;;;;;-4.06;100.00;99989.44;6128717;28;20492;-86
2022/12/15 11:05:35;;;;;;;19.13;9.68;;;;;;;-4.01;100.00;99989.31;6130893;28;20063;-86
2022/12/15 11:08:37;;;;;;;17.40;8.43;;;;;;;-3.97;100.00;99989.19;6137936;28;20055;-86
2022/12/15 11:15:31;;;;;;;19.25;9.88;;;;;;;-3.81;100.00;99994.63;6137769;28;20627;-86
2022/12/15 11:19:01;;;;;;;18.88;9.07;;;;;;;-3.72;100.00;99998.59;6129513;28;20059;-86
2022/12/15 11:22:11;;;;;;;19.70;9.52;;;;;;;-3.62;100.00;99997.47;6121052;28;20050;-86
2022/12/15 11:25:32;;;;;;;20.48;10.65;;;;;;;-3.53;100.00;99998.88;6138396;28;20469;-86
2022/12/15 11:28:49;;;;;;;18.95;10.30;;;;;;;-3.45;100.00;99996.97;6138276;28;20047;-86
2022/12/15 11:31:54;;;;;;;16.98;9.00;;;;;;;-3.39;100.00;100006.06;6170788;28;20148;-86
2022/12/15 11:35:00;;;;;;;17.42;8.68;;;;;;;-3.38;100.00;100008.56;6213863;28;20038;-86
2022/12/15 11:38:36;;;;;;;14.80;8.20;;;;;;;-3.34;100.00;100001.69;6210569;28;20054;-86
2022/12/15 11:42:03;;;;;;;15.25;8.82;;;;;;;-3.29;100.00;100004.91;6211676;28;20065;-86
2022/12/15 11:45:18;;;;;;;15.75;8.38;;;;;;;-3.24;100.00;100008.13;6203243;28;20081;-86
2022/12/15 11:48:26;;;;;;;16.75;9.10;;;;;;;-3.19;100.00;100013.06;6218302;28;20057;-87
2022/12/15 11:51:58;;;;;;;14.82;8.65;;;;;;;-3.16;100.00;100007.91;6195110;28;20038;-86
2022/12/15 11:55:19;;;;;;;16.60;9.23;;;;;;;-3.13;100.00;100011.19;6210828;28;20058;-86
2022/12/15 11:58:52;;;;;;;19.60;9.27;;;;;;;-3.10;100.00;100012.78;6221896;28;20820;-87
2022/12/15 12:02:21;;;;;;;19.15;10.07;;;;;;;-3.05;100.00;100018.53;6199894;28;20204;-86
2022/12/15 12:05:44;;;;;;;18.67;10.25;;;;;;;-3.02;100.00;100013.38;6197911;28;20054;-86
2022/12/15 12:09:08;;;;;;;17.77;9.18;;;;;;;-3.06;100.00;100010.09;6203543;28;20102;-86
2022/12/15 12:12:24;;;;;;;16.50;9.63;;;;;;;-3.06;100.00;100007.56;6211183;28;20056;-86
2022/12/15 12:15:57;;;;;;;17.60;9.68;;;;;;;-3.05;100.00;100006.69;6207676;28;20116;-86
2022/12/15 12:19:10;;;;;;;19.60;9.48;;;;;;;-3.05;100.00;99993.22;6207778;28;20121;-86
2022/12/15 12:22:27;;;;;;;17.60;10.20;;;;;;;-3.04;100.00;99994.84;6214827;28;20030;-86
2022/12/15 12:25:38;;;;;;;20.20;10.35;;;;;;;-3.04;100.00;99989.78;6202000;28;20034;-86
2022/12/15 12:29:04;;;;;;;19.85;10.48;;;;;;;-3.01;100.00;99996.47;6217721;28;21198;-86
2022/12/15 12:32:31;;;;;;;20.42;10.15;;;;;;;-3.01;100.00;99994.75;6199532;28;20095;-86
2022/12/15 12:35:44;;;;;;;21.38;9.98;;;;;;;-2.98;100.00;99994.69;6208614;28;20033;-86
2022/12/15 12:38:54;;;;;;;19.33;10.13;;;;;;;-2.95;100.00;99989.50;6205372;28;20045;-86
2022/12/15 12:42:14;;;;;;;16.50;9.48;;;;;;;-2.96;100.00;99995.44;6205605;28;20057;-86
2022/12/15 12:45:16;;;;;;;19.92;10.40;;;;;;;-2.99;100.00;99997.25;6202514;28;20507;-86
2022/12/15 12:48:30;;;;;;;19.67;10.23;;;;;;;-3.03;100.00;99999.88;6195294;28;20050;-86
2022/12/15 12:51:37;;;;;;;20.25;11.05;;;;;;;-3.03;100.00;100004.94;6208580;28;20056;-86
2022/12/15 12:54:43;;;;;;;21.35;10.38;;;;;;;-3.04;100.00;100000.75;6196185;28;20472;-86
2022/12/15 12:57:45;;;;;;;18.45;9.93;;;;;;;-3.06;100.00;100004.19;6211150;28;20037;-86
2022/12/15 13:01:09;;;;;;;17.60;9.93;;;;;;;-3.11;100.00;99990.84;6196806;28;20041;-86
2022/12/15 13:04:33;;;;;;;23.17;10.57;;;;;;;-3.12;100.00;99991.75;6198875;28;20108;-86
2022/12/15 13:07:39;;;;;;;17.60;10.13;;;;;;;-3.17;100.00;99996.94;6193394;28;20037;-86
2022/12/15 13:10:44;;;;;;;21.17;10.68;;;;;;;-3.21;100.00;99986.97;6199785;28;20048;-85
2022/12/15 13:13:48;;;;;;;20.50;10.27;;;;;;;-3.24;100.00;99990.41;6208626;28;20046;-86
2022/12/15 13:17:05;;;;;;;15.32;9.40;;;;;;;-3.27;100.00;99982.94;6205013;28;20436;-86
2022/12/15 13:20:29;;;;;;;17.35;9.70;;;;;;;-3.31;100.00;99989.75;6206124;28;20504;-86
2022/12/15 13:23:44;;;;;;;23.30;10.65;;;;;;;-3.33;100.00;99985.63;6204091;28;20428;-85
2022/12/15 13:26:51;;;;;;;19.60;10.25;;;;;;;-3.37;100.00;99984.91;6199036;28;20117;-86
2022/12/15 13:30:13;;;;;;;18.67;10.38;;;;;;;-3.38;100.00;99982.41;6199968;28;20196;-85
2022/12/15 13:33:17;;;;;;;25.63;11.25;;;;;;;-3.40;100.00;99981.63;6210513;28;20042;-85
2022/12/15 13:36:38;;;;;;;20.67;10.70;;;;;;;-3.41;100.00;99973.22;6210297;28;20050;-85
2022/12/15 13:39:55;;;;;;;22.75;11.13;;;;;;;-3.44;100.00;99970.78;6207648;28;20549;-85
2022/12/15 13:43:15;;;;;;;20.67;11.05;;;;;;;-3.48;100.00;99970.06;6210902;28;20038;-85
2022/12/15 13:46:23;;;;;;;23.95;11.68;;;;;;;-3.53;100.00;99971.91;6207841;28;20389;-85
2022/12/15 13:49:41;;;;;;;21.73;11.48;;;;;;;-3.57;100.00;99974.56;6225613;28;20050;-85
2022/12/15 13:52:55;;;;;;;21.10;10.43;;;;;;;-3.58;100.00;99983.00;6208082;28;20038;-85
2022/12/15 13:56:53;;;;;;;18.70;10.90;;;;;;;-3.62;100.00;99976.41;6205331;28;20616;-85
2022/12/15 13:59:59;;;;;;;18.33;9.98;;;;;;;-3.66;100.00;99965.53;6143976;28;20062;-85
2022/12/15 14:03:11;;;;;;;20.10;10.13;;;;;;;-3.67;100.00;99974.00;6138809;28;20055;-85
2022/12/15 14:06:14;;;;;;;20.08;10.30;;;;;;;-3.70;100.00;99974.94;6135851;28;20073;-85
2022/12/15 14:09:21;;;;;;;25.20;13.10;;;;;;;-3.73;100.00;99975.00;6137064;28;20058;-85
2022/12/15 14:12:23;;;;;;;26.67;13.75;;;;;;;-3.76;100.00;99975.09;6134911;28;20079;-85
2022/12/15 14:15:29;;;;;;;23.58;11.18;;;;;;;-3.77;100.00;99977.69;6138183;28;20043;-85
2022/12/15 14:18:40;;;;;;;17.75;10.07;;;;;;;-3.77;100.00;99975.97;6137726;28;21606;-85
2022/12/15 14:21:50;;;;;;;21.48;9.68;;;;;;;-3.78;100.00;99971.78;6138257;28;20414;-86
2022/12/15 14:24:58;;;;;;;19.33;10.52;;;;;;;-3.75;100.00;99980.97;6138584;28;20136;-85
2022/12/15 14:28:00;;;;;;;28.35;14.25;;;;;;;-3.78;100.00;99981.06;6138941;28;20578;-85
2022/12/15 14:31:15;;;;;;;24.67;12.00;;;;;;;-3.83;100.00;99977.84;6136972;28;20664;-85
2022/12/15 14:34:40;;;;;;;18.05;10.55;;;;;;;-3.96;100.00;99977.38;6136950;28;20134;-85
2022/12/15 14:37:43;;;;;;;16.42;9.77;;;;;;;-4.06;100.00;99976.78;6195401;28;20107;-85
2022/12/15 14:40:48;;;;;;;20.17;10.48;;;;;;;-4.11;100.00;99981.97;6204405;28;20627;-85
2022/12/15 14:43:59;;;;;;;20.85;10.70;;;;;;;-4.12;100.00;99974.44;6208281;28;20073;-85
2022/12/15 14:47:35;;;;;;;21.02;11.38;;;;;;;-4.12;100.00;99965.16;6206224;28;20064;-85
2022/12/15 14:50:37;;;;;;;19.52;11.10;;;;;;;-4.14;100.00;99966.91;6207497;28;20045;-85
2022/12/15 14:53:40;;;;;;;21.27;10.25;;;;;;;-4.18;100.00;99967.03;6212530;28;20484;-85
2022/12/15 14:56:42;;;;;;;23.35;11.15;;;;;;;-4.25;100.00;99961.28;6204607;28;20038;-85
2022/12/15 14:59:47;;;;;;;20.30;10.23;;;;;;;-4.35;100.00;99963.28;6206546;28;20046;-85
2022/12/15 15:02:49;;;;;;;18.67;10.32;;;;;;;-4.47;100.00;99957.69;6207411;28;20046;-85
2022/12/15 15:06:02;;;;;;;18.83;9.75;;;;;;;-4.58;100.00;99951.22;6205692;28;20045;-85
2022/12/15 15:09:26;;;;;;;20.30;10.15;;;;;;;-4.65;100.00;99938.81;6204354;28;20445;-86
2022/12/15 15:12:43;;;;;;;19.42;9.35;;;;;;;-4.72;100.00;99949.94;6219886;28;20049;-86
2022/12/15 15:15:59;;;;;;;21.23;10.57;;;;;;;-4.83;100.00;99945.16;6213083;28;20034;-85
2022/12/15 15:19:03;;;;;;;22.55;11.32;;;;;;;-4.88;100.00;99950.31;6202818;28;20038;-85
2022/12/15 15:22:08;;;;;;;19.33;9.88;;;;;;;-4.94;100.00;99940.41;6201085;28;20184;-85
2022/12/15 15:25:37;;;;;;;18.63;10.10;;;;;;;-4.97;100.00;99940.44;6217157;28;20498;-85
2022/12/15 15:28:43;;;;;;;20.50;9.77;;;;;;;-5.05;100.00;99943.16;6206740;28;20044;-86
2022/12/15 15:31:45;;;;;;;19.58;9.70;;;;;;;-5.05;100.00;99945.69;6205166;28;20040;-85
2022/12/15 15:34:48;;;;;;;20.33;10.70;;;;;;;-5.05;100.00;99940.63;6196337;28;20049;-85
2022/12/15 15:37:52;;;;;;;20.67;10.70;;;;;;;-5.07;100.00;99942.41;6208467;28;20132;-86
2022/12/15 15:40:58;;;;;;;20.80;10.55;;;;;;;-5.13;100.00;99929.91;6189823;28;20073;-86
2022/12/15 15:44:01;;;;;;;21.58;10.75;;;;;;;-5.16;100.00;99934.22;6208501;28;20049;-86
2022/12/15 15:47:03;;;;;;;20.55;10.07;;;;;;;-5.16;100.00;99934.22;6197837;28;20046;-86
2022/12/15 15:50:10;;;;;;;18.00;9.98;;;;;;;-5.18;100.00;99930.91;6207439;28;20038;-86
2022/12/15 15:53:18;;;;;;;18.75;10.82;;;;;;;-5.22;100.00;99928.47;6206905;28;20034;-86
2022/12/15 15:56:20;;;;;;;20.63;11.23;;;;;;;-5.27;100.00;99924.34;6220391;28;20500;-86
2022/12/15 15:59:23;;;;;;;24.55;13.73;;;;;;;-5.28;100.00;99920.19;6208537;28;20045;-86
2022/12/15 16:02:25;;;;;;;22.50;14.82;;;;;;;-5.30;100.00;99929.50;6208050;28;20048;-86
2022/12/15 16:05:28;;;;;;;25.42;12.48;;;;;;;-5.38;100.00;99928.84;6207203;28;20120;-86
2022/12/15 16:08:34;;;;;;;23.25;11.23;;;;;;;-5.46;100.00;99939.94;6198059;28;20492;-85
2022/12/15 16:11:36;;;;;;;21.08;10.32;;;;;;;-5.48;100.00;99933.28;6205433;28;20045;-86
2022/12/15 16:14:38;;;;;;;19.85;11.15;;;;;;;-5.52;100.00;99929.16;6206594;28;20057;-86
2022/12/15 16:17:41;;;;;;;19.08;10.68;;;;;;;-5.55;100.00;99937.59;6200749;28;20081;-86
2022/12/15 16:20:47;;;;;;;27.00;12.00;;;;;;;-5.60;100.00;99936.06;6204093;28;20042;-86
2022/12/15 16:23:49;;;;;;;19.10;11.23;;;;;;;-5.67;100.00;99942.94;6200346;28;20085;-86
2022/12/15 16:26:51;;;;;;;25.75;12.10;;;;;;;-5.70;100.00;99946.34;6201790;28;20049;-88
2022/12/15 16:29:53;;;;;;;21.90;11.98;;;;;;;-5.69;100.00;99937.09;6217303;28;20084;-88
2022/12/15 16:32:55;;;;;;;22.88;11.23;;;;;;;-5.72;100.00;99937.97;6203880;28;20091;-88
2022/12/15 16:35:58;;;;;;;21.65;12.82;;;;;;;-5.76;100.00;99938.06;6203645;28;20068;-88
2022/12/15 16:39:00;;;;;;;22.27;11.38;;;;;;;-5.80;100.00;99949.09;6204430;28;20051;-88
2022/12/15 16:42:02;;;;;;;19.40;10.90;;;;;;;-5.81;100.00;99949.94;6197984;28;20045;-88
2022/12/15 16:45:18;;;;;;;19.13;10.90;;;;;;;-5.80;100.00;99961.69;6208801;28;20415;-88
2022/12/15 16:48:20;;;;;;;18.98;11.43;;;;;;;-5.84;100.00;99963.44;6204280;28;20035;-88
2022/12/15 16:51:37;;;;;;;21.88;12.15;;;;;;;-5.86;100.00;99958.44;6197015;28;20034;-88